Time;durP1;ratioP1;P1;durP2;ratioP2;P2;SDS_P1;SDS_P2;PMS_P1;PMS_P2;Temp;Humidity;BMP_temperature;BMP_pressure;BME280_temperature;BME280_humidity;BME280_pressure;Samples;Min_cycle;Max_cycle;Signal;HPM_P1;HPM_P2
2022/03/09 00:01:54;;;;;;;4.03;3.50;;;2.40;99.90;;;;;;5131491;28;20039;-81
2022/03/09 00:04:20;;;;;;;7.28;4.05;;;2.60;99.90;;;;;;5129826;28;20417;-81
2022/03/09 00:06:45;;;;;;;6.55;4.13;;;2.70;99.90;;;;;;5113328;28;20047;-81
2022/03/09 00:09:13;;;;;;;5.93;3.90;;;2.70;99.90;;;;;;5129775;28;20491;-80
2022/03/09 00:11:39;;;;;;;5.97;3.75;;;2.60;99.90;;;;;;5113456;28;20066;-81
2022/03/09 00:14:04;;;;;;;4.60;4.00;;;2.50;99.90;;;;;;5113103;28;20087;-81
2022/03/09 00:16:30;;;;;;;5.45;4.05;;;2.50;99.90;;;;;;5131264;28;20051;-81
2022/03/09 00:18:55;;;;;;;4.45;3.70;;;2.40;99.90;;;;;;5129646;28;20510;-81
2022/03/09 00:21:21;;;;;;;8.00;4.00;;;2.40;99.90;;;;;;5130767;28;20046;-81
2022/03/09 00:23:47;;;;;;;5.68;4.18;;;3.80;99.90;;;;;;5129770;28;20475;-81
2022/03/09 00:26:13;;;;;;;7.47;3.90;;;3.30;99.90;;;;;;5112148;28;20110;-82
2022/03/09 00:28:39;;;;;;;6.28;3.72;;;3.10;99.90;;;;;;5112863;28;20047;-82
2022/03/09 00:31:04;;;;;;;5.80;4.20;;;3.30;99.90;;;;;;5130092;28;20190;-81
2022/03/09 00:33:30;;;;;;;5.57;3.97;;;3.40;99.90;;;;;;5095483;27;20066;-82
2022/03/09 00:35:56;;;;;;;5.47;4.00;;;2.90;99.90;;;;;;5133539;27;20043;-82
2022/03/09 00:38:21;;;;;;;7.63;4.25;;;2.40;99.90;;;;;;5132791;27;20440;-81
2022/03/09 00:40:48;;;;;;;8.07;4.32;;;2.30;99.90;;;;;;5116865;27;20062;-82
2022/03/09 00:43:15;;;;;;;6.00;4.20;;;2.30;99.90;;;;;;5133090;27;20051;-81
2022/03/09 00:45:41;;;;;;;6.93;4.85;;;2.30;99.90;;;;;;5133823;27;20039;-80
2022/03/09 00:48:07;;;;;;;6.60;4.47;;;2.90;99.90;;;;;;5133387;27;20043;-81
2022/03/09 00:50:32;;;;;;;6.57;4.78;;;3.30;99.90;;;;;;5134510;27;20413;-80
2022/03/09 00:52:58;;;;;;;6.53;4.55;;;2.10;99.90;;;;;;5133710;27;20047;-81
2022/03/09 00:55:23;;;;;;;6.30;4.47;;;2.80;99.90;;;;;;5115709;27;20047;-80
2022/03/09 00:57:49;;;;;;;5.22;4.30;;;1.90;99.90;;;;;;5116044;27;20051;-81
2022/03/09 01:00:15;;;;;;;7.70;4.40;;;3.20;99.90;;;;;;5132884;27;20190;-81
2022/03/09 01:02:45;;;;;;;5.65;4.20;;;1.90;99.90;;;;;;5134405;27;20047;-81
2022/03/09 01:05:11;;;;;;;5.20;4.15;;;2.00;99.90;;;;;;5099371;27;20150;-81
2022/03/09 01:07:36;;;;;;;8.43;4.60;;;1.60;99.90;;;;;;5098959;27;20039;-81
2022/03/09 01:10:03;;;;;;;5.40;4.25;;;2.60;99.90;;;;;;5116120;27;20494;-80
2022/03/09 01:12:28;;;;;;;6.13;4.28;;;2.10;99.90;;;;;;5132318;27;20506;-81
2022/03/09 01:14:54;;;;;;;6.85;4.45;;;2.20;99.90;;;;;;5132907;27;20043;-80
2022/03/09 01:17:19;;;;;;;6.72;4.53;;;2.40;99.90;;;;;;5115188;27;20047;-81
2022/03/09 01:19:45;;;;;;;5.85;4.13;;;2.30;99.90;;;;;;5116040;27;20082;-80
2022/03/09 01:22:11;;;;;;;5.65;4.47;;;3.20;99.90;;;;;;5133187;27;20081;-81
2022/03/09 01:24:36;;;;;;;7.97;4.60;;;2.10;99.90;;;;;;5132554;27;20074;-80
2022/03/09 01:27:02;;;;;;;6.25;4.60;;;2.20;99.90;;;;;;5124599;27;20044;-81
2022/03/09 01:29:28;;;;;;;5.95;4.47;;;2.10;99.90;;;;;;5094949;28;20055;-81
2022/03/09 01:31:54;;;;;;;8.82;5.07;;;2.10;99.90;;;;;;5112585;28;20051;-81
2022/03/09 01:34:19;;;;;;;7.85;4.95;;;2.90;99.90;;;;;;5112969;28;20047;-80
2022/03/09 01:36:45;;;;;;;6.93;4.53;;;2.20;99.90;;;;;;5111866;28;20481;-81
2022/03/09 01:39:10;;;;;;;6.22;4.40;;;2.10;99.90;;;;;;5113463;28;20444;-81
2022/03/09 01:41:37;;;;;;;7.57;5.35;;;2.70;99.90;;;;;;5111751;28;20845;-81
2022/03/09 01:44:17;;;;;;;7.22;4.90;;;3.20;99.90;;;;;;5095192;28;20399;-81
2022/03/09 01:46:45;;;;;;;7.15;5.13;;;2.20;99.90;;;;;;5094202;28;20052;-81
2022/03/09 01:49:10;;;;;;;8.23;5.28;;;2.50;99.90;;;;;;5095571;28;20048;-81
2022/03/09 01:51:39;;;;;;;8.55;6.07;;;2.30;99.90;;;;;;5111474;28;20054;-81
2022/03/09 01:54:05;;;;;;;6.97;4.97;;;2.20;99.90;;;;;;5061549;28;20701;-81
2022/03/09 01:56:30;;;;;;;8.73;5.40;;;2.80;99.90;;;;;;5094430;28;20123;-81
2022/03/09 01:58:56;;;;;;;7.32;5.30;;;2.20;99.90;;;;;;5076937;28;20453;-81
2022/03/09 02:01:22;;;;;;;8.13;5.78;;;2.20;99.90;;;;;;5094365;28;20086;-81
2022/03/09 02:03:48;;;;;;;6.72;5.20;;;2.80;99.90;;;;;;5077806;28;20634;-81
2022/03/09 02:06:14;;;;;;;7.30;5.50;;;2.30;99.90;;;;;;5111599;28;20050;-80
2022/03/09 02:11:24;;;;;;;9.68;5.63;;;2.00;99.90;;;;;;5096947;28;20136;-81
2022/03/09 02:13:50;;;;;;;7.22;5.65;;;1.90;99.90;;;;;;5110962;28;20051;-82
2022/03/09 02:16:16;;;;;;;6.28;5.20;;;2.10;99.90;;;;;;5094770;28;20054;-82
2022/03/09 02:18:41;;;;;;;8.48;5.28;;;2.10;99.90;;;;;;5093658;28;20078;-81
2022/03/09 02:21:08;;;;;;;8.38;5.05;;;2.00;99.90;;;;;;5111413;28;20059;-81
2022/03/09 02:23:34;;;;;;;8.77;5.47;;;2.00;99.90;;;;;;5093973;28;20439;-81
2022/03/09 02:25:59;;;;;;;7.38;5.50;;;3.20;99.90;;;;;;5076924;28;20090;-81
2022/03/09 02:28:25;;;;;;;7.70;5.60;;;2.90;99.90;;;;;;5077178;28;20091;-81
2022/03/09 02:30:55;;;;;;;7.28;5.28;;;2.10;99.90;;;;;;5077446;28;20054;-81
2022/03/09 02:33:21;;;;;;;7.05;5.55;;;2.10;99.90;;;;;;5094075;28;20094;-81
2022/03/09 02:35:46;;;;;;;8.60;5.15;;;2.00;99.90;;;;;;5112519;28;20078;-81
2022/03/09 02:38:12;;;;;;;9.07;5.70;;;2.80;99.90;;;;;;5094162;28;20061;-81
2022/03/09 02:40:38;;;;;;;7.43;5.43;;;2.00;99.90;;;;;;5110378;28;20051;-81
2022/03/09 02:43:03;;;;;;;7.95;5.60;;;1.90;99.90;;;;;;5093958;28;20049;-81
2022/03/09 02:45:29;;;;;;;7.07;5.15;;;1.90;99.90;;;;;;5110817;28;20087;-81
2022/03/09 02:47:56;;;;;;;8.15;5.53;;;1.90;99.90;;;;;;5110839;28;20054;-81
2022/03/09 02:50:22;;;;;;;10.60;6.32;;;2.70;99.90;;;;;;5111119;28;20502;-81
2022/03/09 02:52:47;;;;;;;9.07;6.15;;;0.80;99.90;;;;;;5093894;28;20043;-81
2022/03/09 02:55:13;;;;;;;9.18;5.97;;;2.70;99.90;;;;;;5094200;28;20043;-81
2022/03/09 02:57:39;;;;;;;9.02;5.63;;;1.90;99.90;;;;;;5092517;28;20062;-81
2022/03/09 03:00:07;;;;;;;11.32;6.65;;;2.60;99.90;;;;;;5093775;28;20070;-81
2022/03/09 03:02:34;;;;;;;9.25;6.10;;;1.50;99.90;;;;;;5110399;28;20534;-81
2022/03/09 03:04:59;;;;;;;8.80;6.57;;;1.50;99.90;;;;;;5110401;28;20054;-82
2022/03/09 03:07:25;;;;;;;9.75;6.82;;;1.50;99.90;;;;;;5093215;28;20503;-81
2022/03/09 03:09:51;;;;;;;8.52;6.53;;;1.70;99.90;;;;;;5110142;28;20550;-81
2022/03/09 03:12:17;;;;;;;10.88;6.70;;;1.50;99.90;;;;;;5110632;28;20479;-81
2022/03/09 03:14:42;;;;;;;9.65;6.93;;;1.40;99.90;;;;;;5110371;28;20468;-81
2022/03/09 03:17:08;;;;;;;10.32;6.93;;;1.40;99.90;;;;;;5077139;28;20566;-81
2022/03/09 03:19:34;;;;;;;10.20;6.68;;;1.20;99.90;;;;;;5110507;28;20386;-81
2022/03/09 03:22:00;;;;;;;8.73;6.65;;;1.00;99.90;;;;;;5110980;28;20055;-81
2022/03/09 03:24:27;;;;;;;11.27;6.75;;;1.30;99.90;;;;;;5112229;28;20062;-81
2022/03/09 03:26:53;;;;;;;11.93;7.60;;;0.90;99.90;;;;;;5110550;28;20054;-81
2022/03/09 03:29:18;;;;;;;10.25;7.22;;;0.80;99.90;;;;;;5093887;28;20044;-81
2022/03/09 03:31:44;;;;;;;8.57;6.85;;;0.70;99.90;;;;;;5093456;28;20044;-83
2022/03/09 03:34:09;;;;;;;10.90;7.72;;;1.20;99.90;;;;;;5076822;28;20044;-81
2022/03/09 03:36:35;;;;;;;9.93;7.05;;;0.50;99.90;;;;;;5076321;28;20083;-81
2022/03/09 03:39:01;;;;;;;12.57;8.07;;;1.40;99.90;;;;;;5110450;28;20039;-81
2022/03/09 03:41:26;;;;;;;11.77;7.15;;;0.50;99.90;;;;;;5110596;28;20043;-81
2022/03/09 03:43:52;;;;;;;10.07;7.35;;;0.50;99.90;;;;;;5077327;28;20048;-81
2022/03/09 03:46:18;;;;;;;9.38;6.85;;;1.30;99.90;;;;;;5110937;28;20047;-81
2022/03/09 03:48:43;;;;;;;10.32;7.18;;;0.70;99.90;;;;;;5094298;28;20043;-81
2022/03/09 03:51:09;;;;;;;9.85;7.15;;;1.50;99.90;;;;;;5112039;28;20051;-81
2022/03/09 03:53:35;;;;;;;9.70;6.50;;;0.70;99.90;;;;;;5112045;28;20059;-81
2022/03/09 03:56:00;;;;;;;10.85;6.72;;;1.80;99.90;;;;;;5113309;28;20044;-81
2022/03/09 03:58:26;;;;;;;10.63;7.32;;;0.90;99.90;;;;;;5116130;28;20055;-82
2022/03/09 04:00:51;;;;;;;9.93;6.63;;;1.10;99.90;;;;;;5123654;28;20043;-81
2022/03/09 04:03:17;;;;;;;10.82;6.85;;;1.20;99.90;;;;;;5123689;28;20044;-81
2022/03/09 04:05:43;;;;;;;10.07;6.85;;;1.30;99.90;;;;;;5121443;28;20063;-80
2022/03/09 04:08:08;;;;;;;9.40;6.82;;;1.30;99.90;;;;;;5120160;28;20051;-81
2022/03/09 04:10:34;;;;;;;10.75;6.85;;;2.50;99.90;;;;;;5120415;28;20046;-82
2022/03/09 04:13:03;;;;;;;9.30;6.97;;;2.50;99.90;;;;;;5101431;28;20055;-81
2022/03/09 04:15:31;;;;;;;10.07;7.25;;;2.50;99.90;;;;;;5116305;28;20139;-81
2022/03/09 04:17:57;;;;;;;9.60;6.90;;;1.30;99.90;;;;;;5115154;28;20093;-81
2022/03/09 04:20:22;;;;;;;10.55;7.38;;;1.20;99.90;;;;;;5116280;28;20055;-81
2022/03/09 04:22:48;;;;;;;10.95;7.28;;;1.40;99.90;;;;;;5116341;28;20134;-81
2022/03/09 04:25:14;;;;;;;14.20;7.22;;;1.20;99.90;;;;;;5116776;28;20051;-81
2022/03/09 04:27:39;;;;;;;9.55;7.45;;;1.60;99.90;;;;;;5082531;28;20083;-81
2022/03/09 04:30:05;;;;;;;12.07;7.07;;;2.30;99.90;;;;;;5092415;28;20140;-81
2022/03/09 04:32:32;;;;;;;9.80;6.25;;;1.40;99.90;;;;;;5108822;28;20062;-81
2022/03/09 04:34:57;;;;;;;11.80;7.18;;;1.40;99.90;;;;;;5085398;28;20059;-81
2022/03/09 04:37:23;;;;;;;12.77;7.00;;;1.50;99.90;;;;;;5108953;28;20415;-81
2022/03/09 04:39:49;;;;;;;9.60;7.30;;;1.50;99.90;;;;;;5104790;28;20146;-81
2022/03/09 04:42:15;;;;;;;9.18;7.38;;;1.40;99.90;;;;;;5098619;28;20051;-81
2022/03/09 04:44:40;;;;;;;12.90;7.50;;;1.40;99.90;;;;;;5096917;28;20047;-80
2022/03/09 04:47:06;;;;;;;10.75;7.03;;;1.70;99.90;;;;;;5113894;28;20054;-81
2022/03/09 04:49:32;;;;;;;12.00;7.35;;;1.10;99.90;;;;;;5097455;28;20079;-81
2022/03/09 04:51:57;;;;;;;11.35;7.30;;;1.10;99.90;;;;;;5078665;28;20039;-81
2022/03/09 04:54:23;;;;;;;9.48;7.07;;;2.00;99.90;;;;;;5080033;28;20066;-81
2022/03/09 04:56:49;;;;;;;12.35;7.68;;;0.90;99.90;;;;;;5096090;28;20056;-81
2022/03/09 04:59:16;;;;;;;9.27;7.10;;;0.90;99.90;;;;;;5079619;28;20060;-81
2022/03/09 05:01:42;;;;;;;9.55;7.43;;;1.10;99.90;;;;;;5112967;28;20083;-81
2022/03/09 05:04:08;;;;;;;12.93;7.57;;;0.90;99.90;;;;;;5096401;28;20075;-81
2022/03/09 05:06:33;;;;;;;10.80;7.45;;;2.10;99.90;;;;;;5113180;28;20399;-81
2022/03/09 05:08:59;;;;;;;11.38;7.35;;;1.00;99.90;;;;;;5112503;28;20748;-81
2022/03/09 05:11:25;;;;;;;12.90;7.53;;;1.10;99.90;;;;;;5079148;28;20063;-81
2022/03/09 05:13:50;;;;;;;11.85;7.82;;;1.80;99.90;;;;;;5112928;28;20055;-81
2022/03/09 05:16:16;;;;;;;14.02;8.30;;;1.20;99.90;;;;;;5112897;28;20050;-81
2022/03/09 05:18:42;;;;;;;11.65;7.38;;;2.00;99.90;;;;;;5112428;28;20043;-81
2022/03/09 05:21:09;;;;;;;13.15;7.88;;;2.40;99.90;;;;;;5078866;28;20093;-80
2022/03/09 05:23:35;;;;;;;11.13;7.20;;;1.10;99.90;;;;;;5096613;28;20769;-80
2022/03/09 05:26:00;;;;;;;11.07;7.95;;;2.00;99.90;;;;;;5095457;28;20122;-80
2022/03/09 05:28:26;;;;;;;13.27;8.18;;;0.90;99.90;;;;;;5112719;28;20093;-80
2022/03/09 05:30:51;;;;;;;10.95;7.95;;;0.80;99.90;;;;;;5078574;28;20047;-80
2022/03/09 05:33:17;;;;;;;12.48;7.85;;;1.80;99.90;;;;;;5078952;28;20059;-83
2022/03/09 05:35:43;;;;;;;12.35;7.88;;;0.90;99.90;;;;;;5112140;27;20460;-81
2022/03/09 05:38:08;;;;;;;10.57;8.07;;;1.70;99.90;;;;;;5132838;27;20051;-80
2022/03/09 05:40:34;;;;;;;13.90;8.40;;;1.60;99.90;;;;;;5116085;27;20054;-81
2022/03/09 05:43:00;;;;;;;12.13;7.97;;;1.40;99.90;;;;;;5115153;27;20054;-81
2022/03/09 05:45:25;;;;;;;12.20;8.02;;;2.00;99.90;;;;;;5115644;27;20159;-80
2022/03/09 05:47:51;;;;;;;12.52;8.10;;;1.20;99.90;;;;;;5133213;27;20031;-80
2022/03/09 05:50:18;;;;;;;11.93;8.15;;;1.80;99.90;;;;;;5133620;27;20051;-79
2022/03/09 05:52:44;;;;;;;13.25;8.25;;;1.60;99.90;;;;;;5132457;27;20161;-79
2022/03/09 05:55:10;;;;;;;13.73;8.35;;;1.00;99.90;;;;;;5131138;27;20039;-79
2022/03/09 05:57:35;;;;;;;12.23;8.25;;;1.40;99.90;;;;;;5114021;27;20128;-79
2022/03/09 06:00:02;;;;;;;13.77;8.25;;;1.60;99.90;;;;;;5130850;27;20046;-80
2022/03/09 06:02:28;;;;;;;14.07;9.13;;;0.90;99.90;;;;;;5094275;28;20383;-80
2022/03/09 06:04:53;;;;;;;16.42;8.98;;;2.10;99.90;;;;;;5089659;27;20054;-80
2022/03/09 06:07:19;;;;;;;12.55;7.93;;;1.70;99.90;;;;;;5114291;27;20043;-80
2022/03/09 06:09:45;;;;;;;13.15;8.90;;;0.60;99.90;;;;;;5131731;27;20051;-80
2022/03/09 06:12:11;;;;;;;15.38;8.55;;;0.60;99.90;;;;;;5114397;27;20055;-80
2022/03/09 06:14:36;;;;;;;13.15;9.02;;;1.10;99.90;;;;;;5125457;27;20055;-80
2022/03/09 06:17:02;;;;;;;11.68;7.90;;;0.70;99.90;;;;;;5130474;27;20043;-80
2022/03/09 06:19:28;;;;;;;11.95;8.35;;;0.80;99.90;;;;;;5114223;27;20069;-80
2022/03/09 06:21:53;;;;;;;12.18;8.23;;;1.50;99.90;;;;;;5113979;27;20095;-81
2022/03/09 06:24:19;;;;;;;11.35;7.68;;;2.30;99.90;;;;;;5114420;27;20197;-81
2022/03/09 06:26:45;;;;;;;12.85;8.48;;;1.80;99.90;;;;;;5131770;27;20086;-80
2022/03/09 06:29:11;;;;;;;12.98;8.07;;;1.10;99.90;;;;;;5130968;27;20035;-81
2022/03/09 06:31:36;;;;;;;11.43;8.10;;;1.90;99.90;;;;;;5097314;28;20188;-81
2022/03/09 06:34:02;;;;;;;12.52;8.10;;;2.10;99.90;;;;;;5114224;27;20084;-81
2022/03/09 06:36:28;;;;;;;12.65;8.38;;;1.20;99.90;;;;;;5096693;27;20386;-81
2022/03/09 06:38:54;;;;;;;11.75;7.80;;;1.30;99.90;;;;;;5113252;27;20059;-81
2022/03/09 06:41:19;;;;;;;15.98;8.13;;;1.30;99.90;;;;;;5113138;27;20043;-80
2022/03/09 06:43:45;;;;;;;14.38;7.93;;;2.20;99.90;;;;;;5131074;27;20085;-78
2022/03/09 06:46:11;;;;;;;13.20;8.52;;;1.40;99.90;;;;;;5130221;27;20091;-79
2022/03/09 06:48:37;;;;;;;11.45;7.95;;;1.60;99.90;;;;;;5132001;27;20034;-79
2022/03/09 06:51:03;;;;;;;13.57;7.90;;;1.50;99.90;;;;;;5130350;27;20039;-80
2022/03/09 06:53:28;;;;;;;11.40;8.07;;;2.30;99.90;;;;;;5096983;27;20486;-80
2022/03/09 06:55:54;;;;;;;12.48;8.32;;;1.80;99.90;;;;;;5113152;27;20039;-80
2022/03/09 06:58:20;;;;;;;13.90;8.25;;;3.80;99.90;;;;;;5128433;27;20051;-80
2022/03/09 07:00:45;;;;;;;11.30;8.57;;;3.30;99.90;;;;;;5125477;27;20100;-80
2022/03/09 07:03:11;;;;;;;11.68;8.65;;;3.80;99.90;;;;;;5107407;27;20143;-80
2022/03/09 07:05:37;;;;;;;10.82;7.25;;;4.40;99.90;;;;;;5093689;27;20436;-80
2022/03/09 07:08:02;;;;;;;10.27;8.13;;;4.50;99.90;;;;;;5117097;27;20044;-81
2022/03/09 07:10:28;;;;;;;12.65;8.30;;;4.70;99.90;;;;;;5101680;27;20043;-80
2022/03/09 07:12:54;;;;;;;9.98;8.55;;;4.60;99.90;;;;;;5129649;27;20479;-80
2022/03/09 07:15:19;;;;;;;12.32;7.63;;;5.00;99.90;;;;;;5132391;27;20093;-80
2022/03/09 07:17:46;;;;;;;12.30;7.38;;;5.00;99.90;;;;;;5113492;27;20051;-81
2022/03/09 07:20:12;;;;;;;12.45;8.07;;;4.90;99.90;;;;;;5096442;27;20344;-81
2022/03/09 07:22:42;;;;;;;10.70;7.70;;;5.10;99.90;;;;;;5096743;27;20082;-81
2022/03/09 07:25:09;;;;;;;11.23;7.72;;;4.90;99.90;;;;;;5096613;27;20047;-80
2022/03/09 07:27:35;;;;;;;12.05;8.13;;;5.50;99.90;;;;;;5080139;27;20129;-82
2022/03/09 07:30:00;;;;;;;10.75;7.68;;;6.00;99.90;;;;;;5123599;27;20142;-80
2022/03/09 07:32:26;;;;;;;13.35;8.27;;;6.50;99.90;;;;;;5115197;27;20040;-80
2022/03/09 07:34:52;;;;;;;11.23;7.82;;;6.70;99.90;;;;;;5112425;28;20070;-80
2022/03/09 07:37:17;;;;;;;11.43;8.05;;;7.20;99.90;;;;;;5130099;27;20051;-80
2022/03/09 07:39:43;;;;;;;11.60;7.72;;;7.20;99.90;;;;;;5113120;27;20130;-80
2022/03/09 07:42:09;;;;;;;10.65;8.15;;;7.80;99.90;;;;;;5111331;27;20086;-81
2022/03/09 07:44:34;;;;;;;12.50;7.63;;;8.00;99.90;;;;;;5112850;27;20098;-80
2022/03/09 07:47:00;;;;;;;10.48;8.35;;;8.10;99.90;;;;;;5130375;27;20387;-80
2022/03/09 07:49:25;;;;;;;9.40;7.55;;;8.60;99.80;;;;;;5130401;28;20394;-81
2022/03/09 07:51:51;;;;;;;10.63;7.75;;;8.70;99.10;;;;;;5130409;28;20489;-81
2022/03/09 07:54:17;;;;;;;10.07;7.50;;;8.40;97.70;;;;;;5130997;28;20054;-81
2022/03/09 07:56:43;;;;;;;12.25;7.82;;;8.80;98.40;;;;;;5130274;28;20372;-81
2022/03/09 07:59:11;;;;;;;11.32;7.80;;;8.80;96.60;;;;;;5112756;28;20051;-81
2022/03/09 08:01:37;;;;;;;9.93;7.88;;;9.20;95.90;;;;;;5113728;28;20086;-81
2022/03/09 08:04:03;;;;;;;10.88;8.13;;;9.30;96.00;;;;;;5112505;28;20122;-81
2022/03/09 08:06:29;;;;;;;10.95;7.68;;;9.50;96.80;;;;;;5112965;28;20183;-81
2022/03/09 08:08:54;;;;;;;11.30;7.90;;;9.00;96.40;;;;;;5113722;28;20086;-81
2022/03/09 08:11:20;;;;;;;8.50;7.20;;;9.70;96.70;;;;;;5131168;27;20043;-81
2022/03/09 08:13:46;;;;;;;11.63;7.32;;;10.30;94.80;;;;;;5131222;27;20043;-81
2022/03/09 08:16:11;;;;;;;10.13;7.60;;;10.50;90.60;;;;;;5130024;28;20108;-81
2022/03/09 08:18:38;;;;;;;10.95;7.45;;;10.20;92.40;;;;;;5130610;28;20043;-79
2022/03/09 08:21:04;;;;;;;10.18;7.53;;;10.30;93.60;;;;;;5129221;28;20043;-81
2022/03/09 08:23:29;;;;;;;9.48;7.57;;;10.60;91.60;;;;;;5131572;28;20047;-81
2022/03/09 08:25:55;;;;;;;10.32;7.78;;;10.90;93.00;;;;;;5130202;28;20676;-81
2022/03/09 08:28:21;;;;;;;10.13;7.72;;;11.00;91.70;;;;;;5112575;28;20046;-81
2022/03/09 08:30:46;;;;;;;10.43;7.47;;;11.00;91.70;;;;;;5129965;28;20096;-81
2022/03/09 08:33:12;;;;;;;10.88;7.43;;;11.10;90.80;;;;;;5129741;28;20050;-81
2022/03/09 08:35:38;;;;;;;12.27;7.95;;;11.20;91.60;;;;;;5112472;28;20130;-81
2022/03/09 08:38:04;;;;;;;9.82;8.07;;;11.10;92.00;;;;;;5130245;27;20059;-80
2022/03/09 08:40:30;;;;;;;10.95;8.07;;;11.30;90.40;;;;;;5125573;28;20187;-80
2022/03/09 08:42:55;;;;;;;10.45;7.88;;;11.40;89.40;;;;;;5092463;28;20491;-81
2022/03/09 08:45:21;;;;;;;9.45;7.40;;;11.30;90.60;;;;;;5121717;28;20055;-80
2022/03/09 08:47:47;;;;;;;10.25;7.53;;;11.40;89.70;;;;;;5130153;28;20093;-80
2022/03/09 08:50:12;;;;;;;10.80;7.60;;;11.80;90.40;;;;;;5130403;27;20122;-80
2022/03/09 08:52:38;;;;;;;11.15;7.68;;;11.60;91.40;;;;;;5126613;28;20463;-79
2022/03/09 08:55:06;;;;;;;9.90;7.63;;;12.10;90.60;;;;;;5130132;27;20063;-79
2022/03/09 08:57:31;;;;;;;11.30;7.15;;;12.10;88.20;;;;;;5132502;27;20573;-80
2022/03/09 08:59:57;;;;;;;11.43;7.38;;;11.60;90.80;;;;;;5116544;27;20063;-81
2022/03/09 09:02:24;;;;;;;11.23;7.60;;;12.50;90.00;;;;;;5132957;27;20074;-81
2022/03/09 09:04:49;;;;;;;9.32;7.30;;;12.80;90.10;;;;;;5134880;27;20057;-80
2022/03/09 09:07:15;;;;;;;10.38;7.30;;;12.50;87.80;;;;;;5133808;27;20493;-81
2022/03/09 09:09:41;;;;;;;11.10;7.85;;;12.70;90.60;;;;;;5133485;27;20054;-80
2022/03/09 09:12:07;;;;;;;9.63;7.85;;;13.30;85.90;;;;;;5133332;27;20049;-82
2022/03/09 09:14:33;;;;;;;11.45;7.88;;;13.30;87.30;;;;;;5099341;27;20047;-81
2022/03/09 09:16:58;;;;;;;11.25;7.72;;;13.50;85.40;;;;;;5133774;27;20504;-81
2022/03/09 09:19:24;;;;;;;8.98;7.80;;;13.10;82.60;;;;;;5129076;27;20560;-82
2022/03/09 09:21:50;;;;;;;10.75;7.43;;;13.70;80.70;;;;;;5132448;27;20049;-81
2022/03/09 09:24:16;;;;;;;8.63;7.28;;;13.50;84.20;;;;;;5131998;27;20073;-81
2022/03/09 09:26:42;;;;;;;9.85;7.45;;;13.90;84.20;;;;;;5116145;27;20050;-82
2022/03/09 09:29:09;;;;;;;11.63;7.40;;;14.80;78.50;;;;;;5133981;27;20043;-81
2022/03/09 09:31:35;;;;;;;8.00;7.15;;;14.30;79.70;;;;;;5116371;27;20046;-82
2022/03/09 09:34:02;;;;;;;8.80;7.28;;;13.90;77.60;;;;;;5115853;27;20065;-81
2022/03/09 09:36:28;;;;;;;9.85;7.90;;;13.60;77.70;;;;;;5132220;27;20059;-81
2022/03/09 09:38:54;;;;;;;8.75;6.95;;;13.90;78.30;;;;;;5132364;27;20131;-79
2022/03/09 09:41:24;;;;;;;8.88;7.13;;;14.10;78.10;;;;;;5132334;27;20047;-80
2022/03/09 09:43:50;;;;;;;9.68;7.50;;;14.00;74.90;;;;;;5132976;27;20398;-81
2022/03/09 09:46:16;;;;;;;9.30;7.75;;;13.90;73.30;;;;;;5132191;27;20054;-79
2022/03/09 09:48:45;;;;;;;8.10;7.28;;;13.20;72.70;;;;;;5131927;27;20138;-81
2022/03/09 09:51:11;;;;;;;10.48;6.60;;;13.80;72.60;;;;;;5095719;27;20177;-81
2022/03/09 09:53:37;;;;;;;9.55;7.53;;;13.70;72.90;;;;;;5113856;27;20043;-81
2022/03/09 09:56:03;;;;;;;9.57;7.60;;;13.10;70.40;;;;;;5114298;27;20031;-81
2022/03/09 09:58:29;;;;;;;13.00;7.50;;;12.60;70.70;;;;;;5109123;27;20676;-80
2022/03/09 10:00:56;;;;;;;10.13;7.70;;;12.60;73.60;;;;;;5114424;27;20050;-81
2022/03/09 10:03:21;;;;;;;10.73;7.90;;;12.40;71.50;;;;;;5085687;28;20039;-80
2022/03/09 10:05:47;;;;;;;13.10;8.02;;;12.20;71.40;;;;;;5111657;27;20505;-81
2022/03/09 10:08:14;;;;;;;11.73;7.57;;;12.00;72.20;;;;;;5105539;27;20055;-81
2022/03/09 10:10:42;;;;;;;9.55;7.78;;;12.20;74.40;;;;;;5113310;27;20051;-82
2022/03/09 10:13:14;;;;;;;10.57;7.30;;;12.60;73.50;;;;;;5113449;27;20051;-81
2022/03/09 10:15:40;;;;;;;9.88;7.60;;;13.40;72.90;;;;;;5130874;27;20046;-80
2022/03/09 10:18:19;;;;;;;12.27;7.82;;;13.70;73.60;;;;;;5130913;27;20095;-80
2022/03/09 10:20:46;;;;;;;9.40;7.63;;;13.90;71.70;;;;;;5091728;27;20095;-80
2022/03/09 10:23:12;;;;;;;9.30;7.60;;;13.50;71.10;;;;;;5130893;27;20039;-80
2022/03/09 10:25:38;;;;;;;9.18;7.25;;;12.70;72.80;;;;;;5132185;27;20111;-80
2022/03/09 10:28:11;;;;;;;10.98;7.82;;;13.50;71.60;;;;;;5130968;27;20047;-80
2022/03/09 10:30:39;;;;;;;10.07;7.70;;;13.50;70.00;;;;;;5095814;27;20188;-79
2022/03/09 10:33:08;;;;;;;9.45;7.45;;;13.50;69.20;;;;;;5127702;27;20101;-80
2022/03/09 10:35:34;;;;;;;10.27;7.43;;;13.50;70.70;;;;;;5131408;27;20043;-80
2022/03/09 10:38:04;;;;;;;13.05;7.75;;;12.80;70.30;;;;;;5131527;27;20489;-81
2022/03/09 10:40:31;;;;;;;11.45;7.97;;;12.20;73.40;;;;;;5112482;27;20036;-81
2022/03/09 10:43:13;;;;;;;11.95;7.60;;;12.20;74.60;;;;;;5101335;28;20043;-80
2022/03/09 10:45:58;;;;;;;10.95;7.72;;;12.60;74.80;;;;;;5093383;28;20056;-80
2022/03/09 10:48:25;;;;;;;11.10;8.18;;;13.00;73.60;;;;;;5110196;28;20055;-80
2022/03/09 10:50:51;;;;;;;12.57;8.02;;;12.60;70.70;;;;;;5094205;28;20058;-80
2022/03/09 10:53:17;;;;;;;11.88;7.80;;;12.40;72.90;;;;;;5109753;28;20051;-80
2022/03/09 10:55:43;;;;;;;8.38;7.40;;;12.80;71.00;;;;;;5110463;28;20043;-79
2022/03/09 10:58:17;;;;;;;10.32;7.93;;;12.70;71.50;;;;;;5093164;28;20062;-80
2022/03/09 11:00:43;;;;;;;12.43;7.75;;;12.50;71.90;;;;;;5093858;28;20063;-80
2022/03/09 11:03:16;;;;;;;12.38;7.68;;;12.50;74.30;;;;;;5110616;28;20051;-80
2022/03/09 11:05:55;;;;;;;11.60;8.32;;;12.30;73.90;;;;;;5109829;28;20044;-80
2022/03/09 11:08:28;;;;;;;9.63;7.65;;;12.20;74.40;;;;;;5110632;28;20399;-80
2022/03/09 11:10:58;;;;;;;10.60;8.02;;;12.20;75.80;;;;;;5111321;28;20051;-80
2022/03/09 11:13:24;;;;;;;12.98;8.30;;;12.10;75.60;;;;;;5117274;27;20047;-80
2022/03/09 11:15:50;;;;;;;10.82;7.63;;;12.10;76.90;;;;;;5104741;27;20045;-80
2022/03/09 11:18:19;;;;;;;10.55;8.02;;;11.90;75.40;;;;;;5130773;27;20047;-80
2022/03/09 11:20:45;;;;;;;11.70;7.60;;;11.70;76.00;;;;;;5095248;27;20043;-80
2022/03/09 11:23:14;;;;;;;12.77;8.25;;;11.40;77.30;;;;;;5098538;28;20122;-80
2022/03/09 11:25:50;;;;;;;10.23;7.72;;;11.40;77.60;;;;;;5127356;27;20400;-80
2022/03/09 11:28:26;;;;;;;10.68;7.82;;;11.40;78.60;;;;;;5096199;27;20055;-80
2022/03/09 11:30:56;;;;;;;11.40;8.30;;;11.40;78.40;;;;;;5112672;28;20051;-80
2022/03/09 11:34:06;;;;;;;14.63;8.85;;;11.20;82.00;;;;;;5110441;27;20052;-80
2022/03/09 11:36:33;;;;;;;9.98;7.88;;;11.10;81.80;;;;;;5120411;27;20517;-81
2022/03/09 11:39:05;;;;;;;10.82;7.05;;;11.10;79.80;;;;;;5093515;27;20114;-80
2022/03/09 11:41:35;;;;;;;10.13;8.57;;;11.20;80.40;;;;;;5129350;27;20035;-80
2022/03/09 11:44:20;;;;;;;9.70;7.70;;;11.30;80.60;;;;;;5129016;27;20107;-81
2022/03/09 11:47:01;;;;;;;17.25;7.95;;;11.20;80.50;;;;;;5112738;28;20059;-80
2022/03/09 11:49:36;;;;;;;14.68;7.75;;;11.30;84.90;;;;;;5130805;27;20499;-80
2022/03/09 11:52:11;;;;;;;11.73;7.88;;;11.40;84.10;;;;;;5131420;27;20083;-80
2022/03/09 11:54:47;;;;;;;10.10;8.13;;;11.40;84.30;;;;;;5131097;28;20122;-80
2022/03/09 11:57:14;;;;;;;11.55;7.97;;;11.30;87.20;;;;;;5097229;28;20051;-80
2022/03/09 12:00:00;;;;;;;12.57;8.57;;;11.40;86.30;;;;;;5112526;28;20148;-81
2022/03/09 12:02:47;;;;;;;11.90;8.35;;;11.50;85.20;;;;;;5111778;28;20554;-81
2022/03/09 12:05:25;;;;;;;10.75;8.05;;;11.50;85.70;;;;;;5096206;28;20043;-80
2022/03/09 12:07:52;;;;;;;15.88;8.68;;;11.50;89.10;;;;;;5130369;28;20533;-80
2022/03/09 12:10:19;;;;;;;10.52;8.07;;;11.70;90.00;;;;;;5113165;28;20051;-80
2022/03/09 12:13:19;;;;;;;13.38;7.95;;;11.80;87.80;;;;;;5112692;28;20444;-79
2022/03/09 12:16:05;;;;;;;10.00;7.80;;;11.80;82.80;;;;;;5129218;28;20267;-79
2022/03/09 12:18:35;;;;;;;10.57;7.88;;;11.90;79.90;;;;;;5128845;28;20479;-79
2022/03/09 12:21:01;;;;;;;13.77;8.00;;;12.00;78.70;;;;;;5113452;28;20054;-79
2022/03/09 12:23:27;;;;;;;15.13;8.40;;;11.90;78.40;;;;;;5095197;28;20376;-79
2022/03/09 12:25:53;;;;;;;13.32;7.65;;;12.00;79.80;;;;;;5130192;28;20043;-80
2022/03/09 12:28:29;;;;;;;13.05;8.20;;;11.90;76.90;;;;;;5129842;28;20051;-80
2022/03/09 12:30:56;;;;;;;9.90;8.20;;;11.90;77.60;;;;;;5131854;27;20046;-81
2022/03/09 12:33:34;;;;;;;12.48;8.60;;;12.00;77.50;;;;;;5133999;27;20428;-81
2022/03/09 12:36:07;;;;;;;11.77;7.95;;;12.00;76.70;;;;;;5116916;27;20047;-81
2022/03/09 12:38:37;;;;;;;14.80;9.18;;;12.20;78.40;;;;;;5116010;27;20054;-80
2022/03/09 12:41:03;;;;;;;9.95;7.88;;;12.20;78.10;;;;;;5116681;27;20062;-80
2022/03/09 12:43:51;;;;;;;9.57;7.88;;;12.30;77.40;;;;;;5134423;27;20035;-80
2022/03/09 12:46:17;;;;;;;11.45;7.75;;;12.40;74.80;;;;;;5116180;27;20058;-80
2022/03/09 12:48:43;;;;;;;9.93;8.05;;;12.50;72.00;;;;;;5115022;27;20560;-80
2022/03/09 12:51:09;;;;;;;10.68;7.85;;;12.50;72.10;;;;;;5113065;27;20067;-80